• Join FlightAware (Why Join?)
  • Login
  • US Flag 
01:39PM EDT


 

Airport Tracker/Info


-or-


 

Live Flight TrackerFlight Track Log ✈ N589H ✈ 01-Mar-2014 ✈ TQPF / AXA - MYNN / NAS

Flight Track Log - Related Links

Times and Time Zones

All times are in EST time to prevent confusion due to time zone crossing. See the N589H flight status page for this flight to view local times or setup timezone preferences in your user account.

Time Position Orientation Groundspeed Altitude Reporting Facility
EST Latitude Longitude Course Direction KTS MPH feet Rate Location/Type
07:26AM 18.2333 -63.0500 281° West 190 219 5,900  Level San Juan Center
07:27AM 18.2167 -63.1000 251° West 180 207 7,900 1,560 Climbing San Juan Center
07:28AM 18.2000 -63.1667 255° West 220 253 9,100 1,200 Climbing San Juan Center
07:29AM 18.1833 -63.2333 255° West 250 288 10,400 1,500 Climbing San Juan Center
07:30AM 18.1833 -63.3167 270° West 250 288 12,200 1,560 Climbing San Juan Center
07:31AM 18.1667 -63.3833 255° West 270 311 13,600 1,500 Climbing San Juan Center
07:32AM 18.0721 -63.3797 281° West  Level FlightAware Approximate
07:32AM 18.1500 -63.4667 258° West 270 311 15,200  Level San Juan Center
07:33AM 18.1333 -63.5500 258° West 290 334 16,500 1,320 Climbing San Juan Center
07:34AM 18.1333 -63.6333 270° West 290 334 17,900 1,440 Climbing San Juan Center
07:35AM 18.1667 -63.7000 298° West 280 322 19,500 1,260 Climbing San Juan Center
07:36AM 18.2000 -63.7833 293° West 280 322 20,500 1,080 Climbing San Juan Center
07:37AM 18.2167 -63.8667 282° West 290 334 21,700 1,020 Climbing San Juan Center
07:38AM 18.2500 -63.9500 293° West 290 334 22,600 840 Climbing San Juan Center
07:39AM 18.2833 -64.0333 293° West 300 345 23,500 840 Climbing San Juan Center
07:40AM 18.3167 -64.1000 298° West 300 345 24,300 780 Climbing San Juan Center
07:41AM 18.3500 -64.1833 293° West 310 357 25,100 720 Climbing San Juan Center
07:42AM 18.3667 -64.2667 282° West 300 345 25,800 660 Climbing San Juan Center
07:43AM 18.4000 -64.3500 293° West 300 345 26,500 600 Climbing San Juan Center
07:44AM 18.4333 -64.4333 293° West 300 345 27,100 540 Climbing San Juan Center
07:45AM 18.4667 -64.5167 293° West 300 345 27,600 480 Climbing San Juan Center
07:46AM 18.5000 -64.6000 293° West 310 357 28,100 540 Climbing San Juan Center
07:47AM 18.5333 -64.6833 293° West 310 357 28,700 600 Climbing San Juan Center
07:48AM 18.5667 -64.7667 293° West 300 345 29,300 480 Climbing San Juan Center
07:49AM 18.6000 -64.8500 293° West 310 357 29,700 360 Climbing San Juan Center
07:50AM 18.6333 -64.9333 293° West 310 357 30,100 420 Climbing San Juan Center
07:51AM 18.6500 -65.0167 282° West 310 357 30,600 480 Climbing San Juan Center
07:52AM 18.6833 -65.1000 293° West 300 345 31,100 480 Climbing San Juan Center
07:53AM 18.7167 -65.1833 293° West 310 357 31,600 420 Climbing San Juan Center
07:54AM 18.7500 -65.2667 293° West 300 345 32,000 180 Climbing San Juan Center
07:55AM 18.7833 -65.3667 289° West 310 357 32,000  Level San Juan Center
07:56AM 18.8167 -65.4333 298° West 320 368 32,000  Level San Juan Center
07:58AM 18.8500 -65.5333 289° West 330 380 32,000  Level San Juan Center
07:59AM 18.8833 -65.6167 293° West 330 380 32,000  Level San Juan Center
08:00AM 18.9167 -65.7167 289° West 330 380 32,000  Level San Juan Center
08:01AM 18.9500 -65.8167 289° West 330 380 32,000  Level San Juan Center
08:02AM 18.9833 -65.9000 293° West 340 391 32,000  Level San Juan Center
08:03AM 19.0167 -66.0000 289° West 330 380 32,000  Level San Juan Center
08:04AM 19.0500 -66.0833 293° West 340 391 32,000  Level San Juan Center
08:05AM 19.0667 -66.1833 280° West 340 391 32,000  Level San Juan Center
08:06AM 19.1000 -66.2667 293° West 340 391 32,000  Level San Juan Center
08:07AM 19.1500 -66.3667 298° West 340 391 32,000  Level San Juan Center
08:08AM 19.1667 -66.4333 285° West 320 368 32,000  Level San Juan Center
08:09AM 19.2000 -66.5333 289° West 340 391 32,000  Level San Juan Center
08:10AM 19.2333 -66.6167 293° West 330 380 32,000  Level San Juan Center
08:11AM 19.2667 -66.7333 287° West 340 391 32,000  Level San Juan Center
08:12AM 19.3000 -66.8333 289° West 330 380 32,000  Level San Juan Center
08:13AM 19.3333 -66.9167 293° West 330 380 32,000  Level San Juan Center
08:14AM 19.3667 -67.0167 289° West 330 380 32,000  Level San Juan Center
08:15AM 19.4000 -67.1000 293° West 340 391 32,000  Level San Juan Center
08:16AM 19.4333 -67.2000 289° West 340 391 32,000  Level San Juan Center
08:17AM 19.4667 -67.2833 293° West 340 391 32,000  Level San Juan Center
08:18AM 19.5000 -67.3833 289° West 340 391 32,000  Level San Juan Center
08:19AM 19.5333 -67.4667 293° West 330 380 32,000  Level San Juan Center
08:20AM 19.5667 -67.5667 289° West 330 380 32,000  Level San Juan Center
08:21AM 19.6000 -67.6500 293° West 330 380 32,000  Level San Juan Center
08:22AM 19.6333 -67.7500 290° West 330 380 32,000  Level San Juan Center
08:23AM 19.6667 -67.8333 293° West 330 380 32,000  Level San Juan Center
08:24AM 19.7000 -67.9333 290° West 330 380 32,000  Level San Juan Center
08:25AM 19.7333 -68.0167 293° West 330 380 32,000  Level San Juan Center
08:27AM 19.8033 -68.2083 291° West 394 453 32,000  Level Miami Center
08:28AM 19.8353 -68.2964 291° West 347 399 32,000  Level Miami Center
08:29AM 19.8611 -68.3872 287° West 329 379 32,000  Level Miami Center
08:30AM 19.8889 -68.4800 288° West 324 373 32,000  Level Miami Center
08:31AM 19.9247 -68.5661 294° West 324 373 32,000  Level Miami Center
08:32AM 19.9728 -68.6467 302° West 324 373 32,000  Level Miami Center
08:33AM 20.0206 -68.7275 302° West 324 373 32,000  Level Miami Center
08:34AM 20.0686 -68.8083 302° West 324 373 32,000  Level Miami Center
08:35AM 20.1203 -68.8869 305° West 329 379 32,000  Level Miami Center
08:36AM 20.1683 -68.9681 302° West 329 379 32,000  Level Miami Center
08:37AM 20.2139 -69.0469 302° West 329 379 32,000  Level Miami Center
08:38AM 20.2656 -69.1256 305° West 329 379 32,000  Level Miami Center
08:39AM 20.3092 -69.2050 300° West 322 371 32,000  Level Miami Center
08:40AM 20.3608 -69.2814 306° West 322 371 32,000  Level Miami Center
08:41AM 20.4022 -69.3608 299° West 317 365 32,000  Level Miami Center
08:42AM 20.4517 -69.4378 304° West 317 365 32,000  Level Miami Center
08:43AM 20.4969 -69.5150 302° West 317 365 32,000  Level Miami Center
08:44AM 20.5464 -69.5919 304° West 317 365 32,000  Level Miami Center
08:45AM 20.5897 -69.6714 300° West 312 359 32,000  Level Miami Center
08:46AM 20.6369 -69.7486 303° West 312 359 32,000  Level Miami Center
08:47AM 20.6842 -69.8258 303° West 312 359 32,000  Level Miami Center
08:48AM 20.7317 -69.9075 302° West 317 365 32,000  Level Miami Center
08:49AM 20.7789 -69.9828 304° West 317 365 32,000  Level Miami Center
08:50AM 20.8194 -70.0539 301° West 317 365 32,000  Level Miami Center
08:51AM 20.8667 -70.1311 303° West 317 365 32,000  Level Miami Center
08:52AM 20.9136 -70.2089 303° West 317 365 32,000  Level Miami Center
08:53AM 20.9589 -70.2886 301° West 317 365 32,000  Level Miami Center
08:54AM 21.0058 -70.3642 304° West 317 365 32,000  Level Miami Center
08:55AM 21.0508 -70.4442 301° West 317 365 32,000  Level Miami Center
08:56AM 21.0956 -70.5197 302° West 312 359 32,000  Level Miami Center
08:57AM 21.1425 -70.5975 303° West 312 359 32,000  Level Miami Center
08:58AM 21.1872 -70.6731 302° West 312 359 32,000  Level Miami Center
08:59AM 21.2319 -70.7489 302° West 312 359 32,000  Level Miami Center
09:00AM 21.2769 -70.8269 302° West 312 359 32,000  Level Miami Center
09:01AM 21.3214 -70.9028 302° West 312 359 32,000  Level Miami Center
09:02AM 21.3661 -70.9767 303° West 312 359 32,000  Level Miami Center
09:03AM 21.4153 -71.0614 302° West 312 359 32,000  Level Miami Center
09:04AM 21.4619 -71.1372 303° West 312 359 32,000  Level Miami Center
09:05AM 21.5067 -71.2178 301° West 312 359 32,000  Level Miami Center
09:06AM 21.5556 -71.3006 302° West 366 421 32,000  Level Miami Center
09:07AM 21.5978 -71.3747 301° West 331 381 32,000  Level Miami Center
09:08AM 21.6400 -71.4486 302° West 308 354 32,000  Level Miami Center
09:09AM 21.6867 -71.5272 303° West 303 349 32,000  Level Miami Center
09:10AM 21.7308 -71.6014 303° West 303 349 32,000  Level Miami Center
09:11AM 21.7753 -71.6800 301° West 303 349 32,000  Level Miami Center
09:12AM 21.8175 -71.7544 301° West 303 349 32,000  Level Miami Center
09:13AM 21.8617 -71.8286 303° West 303 349 32,000  Level Miami Center
09:14AM 21.9058 -71.9053 302° West 303 349 32,000  Level Miami Center
09:15AM 21.9500 -71.9797 303° West 303 349 32,000  Level Miami Center
09:16AM 21.9919 -72.0542 301° West 298 343 32,000  Level Miami Center
09:17AM 22.0339 -72.1264 302° West 293 337 32,000  Level Miami Center
09:18AM 22.0781 -72.2033 302° West 293 337 32,000  Level Miami Center
09:19AM 22.1200 -72.2781 301° West 293 337 32,000  Level Miami Center
09:20AM 22.1661 -72.3525 304° West 293 337 32,000  Level Miami Center
09:21AM 22.2100 -72.4294 302° West 293 337 32,000  Level Miami Center
09:22AM 22.2519 -72.5067 300° West 293 337 32,000  Level Miami Center
09:23AM 22.2958 -72.5836 302° West 293 337 32,000  Level Miami Center
09:24AM 22.3397 -72.6608 302° West 293 337 32,000  Level Miami Center
09:25AM 22.3817 -72.7358 301° West 293 337 32,000  Level Miami Center
09:26AM 22.4275 -72.8106 304° West 293 337 32,000  Level Miami Center
09:27AM 22.4692 -72.8881 300° West 293 337 32,000  Level Miami Center
09:28AM 22.5128 -72.9653 301° West 293 337 32,000  Level Miami Center
09:29AM 22.5586 -73.0403 304° West 293 337 32,000  Level Miami Center
09:30AM 22.5981 -73.1156 300° West 293 337 32,000  Level Miami Center
09:31AM 22.6458 -73.1908 305° West 293 337 32,000  Level Miami Center
09:32AM 22.6853 -73.2661 300° West 293 337 32,000  Level Miami Center
09:33AM 22.7269 -73.3439 300° West 293 337 32,000  Level Miami Center
09:34AM 22.7722 -73.4169 304° West 293 337 32,000  Level Miami Center
09:35AM 22.8158 -73.4922 302° West 293 337 32,000  Level Miami Center
09:36AM 22.8592 -73.5678 302° West 288 331 32,000  Level Miami Center
09:37AM 22.8964 -73.6411 299° West 288 331 32,000  Level Miami Center
09:38AM 22.9419 -73.7169 303° West 288 331 32,000  Level Miami Center
09:39AM 22.9789 -73.7903 299° West 288 331 32,000  Level Miami Center
09:40AM 23.0222 -73.8661 302° West 288 331 32,000  Level Miami Center
09:41AM 23.0611 -73.9397 300° West 288 331 32,000  Level Miami Center
09:42AM 23.1044 -74.0156 302° West 288 331 32,000  Level Miami Center
09:43AM 23.1456 -74.0892 301° West 288 331 32,000  Level Miami Center
09:44AM 23.1844 -74.1628 300° West 288 331 32,000  Level Miami Center
09:45AM 23.2256 -74.2364 301° West 288 331 32,000  Level Miami Center
09:46AM 23.2706 -74.3103 304° West 288 331 32,000  Level Miami Center
09:47AM 23.3075 -74.3864 298° West 288 331 32,000  Level Miami Center
09:48AM 23.3503 -74.4578 303° West 288 331 32,000  Level Miami Center
09:49AM 23.3911 -74.5342 300° West 288 331 32,000  Level Miami Center
09:50AM 23.4322 -74.6103 300° West 288 331 32,000  Level Miami Center
09:51AM 23.4728 -74.6844 301° West 288 331 32,000  Level Miami Center
09:52AM 23.5136 -74.7583 301° West 288 331 32,000  Level Miami Center
09:53AM 23.5544 -74.8303 302° West 288 331 32,000  Level Miami Center
09:54AM 23.5950 -74.9044 301° West 288 331 32,000  Level Miami Center
09:55AM 23.6356 -74.9786 301° West 288 331 32,000  Level Miami Center
09:56AM 23.6764 -75.0528 301° West 288 331 32,000  Level Miami Center
09:57AM 23.7169 -75.1294 300° West 288 331 32,000  Level Miami Center
09:58AM 23.7575 -75.2039 301° West 288 331 32,000  Level Miami Center
09:59AM 23.8000 -75.2783 302° West 288 331 32,000  Level Miami Center
10:00AM 23.8406 -75.3550 300° West 288 331 32,000  Level Miami Center
10:01AM 23.8811 -75.4317 300° West 288 331 32,000  Level Miami Center
10:02AM 23.9214 -75.5064 301° West 288 331 32,000 -120 Level Miami Center
10:03AM 23.9619 -75.5831 300° West 288 331 31,800 -540 Descending Miami Center
10:04AM 24.0064 -75.6622 302° West 293 337 31,000 -840 Descending Miami Center
10:05AM 24.0489 -75.7461 299° West 305 351 30,200 -900 Descending Miami Center
10:06AM 24.0933 -75.8322 299° West 315 362 29,300 -1,140 Descending Miami Center
10:07AM 24.1419 -75.9206 301° West 327 376 28,000 -1,260 Descending Miami Center
10:08AM 24.1883 -76.0069 300° West 332 382 26,800 -1,200 Descending Miami Center
10:09AM 24.2350 -76.0953 300° West 332 382 25,600 -1,260 Descending Miami Center
10:10AM 24.2814 -76.1817 301° West 332 382 24,300 -1,320 Descending Miami Center
10:11AM 24.3236 -76.2636 299° West 321 369 23,000 -1,440 Descending Miami Center
10:12AM 24.3656 -76.3364 302° West 308 354 21,500 -1,560 Descending Miami Center
10:13AM 24.4014 -76.4139 297° West 292 336 19,900 -1,500 Descending Miami Center
10:14AM 24.4411 -76.4800 303° West 287 330 18,500 -1,500 Descending Miami Center
10:15AM 24.4792 -76.5550 299° West 282 325 17,000 -1,560 Descending Miami Center
10:16AM 24.5189 -76.6328 299° West 292 336 15,400 -1,680 Descending Miami Center
10:17AM 24.5608 -76.7081 302° West 287 330 13,700 -1,680 Descending Miami Center
10:18AM 24.5964 -76.7764 300° West 277 319 12,100 -1,680 Descending Miami Center
10:19AM 24.6319 -76.8450 300° West 266 306 10,400 -1,560 Descending Miami Center
10:20AM 24.6736 -76.9092 306° West 266 306 9,000 -1,380 Descending Miami Center
10:21AM 24.7133 -76.9756 303° West 266 306 7,700 -1,320 Descending Miami Center
10:23AM 24.8049 -77.1157 306° West  Level FlightAware Approximate